Terminal Aerodrome Forecast
Issued by NWS

Home | Current Version | Previous Version | Text Only | Print | Product List | Glossary Off
Versions: 1 2 3 4 5 6 7 8 9 10 11 12 13 14 15

000
FTUS43 KICT 230500
TAFHUT
TAF
KHUT 230520Z 2306/2406 VRB03KT P6SM SKC
      TEMPO 2309/2313 4SM BR SCT030
     FM231400 09005KT P6SM SCT030
     FM231800 08004KT P6SM SKC=

USA.gov is the U.S. government's official web portal to all federal, state and local government web resources and services.